• 1385014 10153382300060425 128216538 n
  • 3
  • 6
  • 7
  • 1
  • 10
  • 未命名
  • 121
  • 55
  • 2
  • cargo

Click here and log in to see your monthly flight duties. 請按此登入個人班表區

Welcome aboard

Current Weather

[source: ADDS]
METAR
RCTP 070800Z 07011KT 030V100 9999 FEW020 SCT045 BKN180 35/24 Q0997 NOSIG RMK QFF 997.3HPA A2945 =
TAF
TAF RCTP 070513Z 0706/0812 02010KT 9999 FEW020 BKN200 TEMPO 0706/0712 31005KT BECMG 0712/0714 09017G28KT BECMG 0800/0802 15012KT =